PWSweather.com
Personal Weather Stations
Station Observations
KOMOKA
Komoka Village, Komoka, ON N0L IRO

Komoka VillageKomoka, ON N0L IRO

Lat: 42.9542444, Lon: -81.4348861

Elevation: 805

Station Type: Davis Vantage Pro 2

Latest ConditionsUpdated 3:01:38 AM EST Thursday, Dec 12, 2019
Currently Today's Max Today's Min Today's Average
Temperature 13.3°F-10.4°C 15.3°F-9.3°C 13.3°F-10.4°C 14.5°F-9.7°C
Dew Point 2.7°F-16.3°C 3.7°F-15.7°C 2.7°F-16.3°C 3.4°F-15.9°C
Winds Calm Calm 3.0 mph -4.8 kmh - - 1.7 mph 2.7 kmh
Wind Gusts -- 7.0 mph11.3 kmh - -
Humidity 62% 62% 59% 61%
Pressure 30.57 in1035.2 mb 30.57 in1035.2 mb 30.53 in1033.9 mb -
Hour Temp Dew Point Humidity Winds Wind Gusts Pressure Precip Precip Rate Daily Precip Total
03:01 AM 13.3°F-10.4°C 2.7°F-16.3°C 62% Calm Calm -- 30.57 in1035.2 mb 0.00 in0.0 mm 0.00 in0.0 mm 0.00 in0.0 mm
02:54 AM 13.5°F-10.3°C 2.8°F-16.2°C 62% Calm Calm -- 30.57 in1035.2 mb 0.00 in0.0 mm 0.00 in0.0 mm 0.00 in0.0 mm
02:47 AM 13.6°F-10.2°C 3.0°F-16.1°C 62% Calm Calm 1.0 mph1.6 kmh 30.56 in1034.9 mb 0.00 in0.0 mm 0.00 in0.0 mm 0.00 in0.0 mm
02:40 AM 13.8°F-10.1°C 3.2°F-16.0°C 62% Calm Calm 3.0 mph4.8 kmh 30.57 in1035.2 mb 0.00 in0.0 mm 0.00 in0.0 mm 0.00 in0.0 mm
02:33 AM 13.8°F-10.1°C 3.2°F-16.0°C 62% Calm Calm 3.0 mph4.8 kmh 30.57 in1035.2 mb 0.00 in0.0 mm 0.00 in0.0 mm 0.00 in0.0 mm
02:26 AM 14.0°F-10.0°C 3.4°F-15.9°C 62% 1.0 mph N1.6 kmh N 5.0 mph8.0 kmh 30.56 in1034.9 mb 0.00 in0.0 mm 0.00 in0.0 mm 0.00 in0.0 mm
02:19 AM 14.2°F-9.9°C 3.4°F-15.9°C 62% 3.0 mph N4.8 kmh N 5.0 mph8.0 kmh 30.56 in1034.9 mb 0.00 in0.0 mm 0.00 in0.0 mm 0.00 in0.0 mm
02:12 AM 14.2°F-9.9°C 3.4°F-15.9°C 62% 1.0 mph N1.6 kmh N 4.0 mph6.4 kmh 30.55 in1034.5 mb 0.00 in0.0 mm 0.00 in0.0 mm 0.00 in0.0 mm
02:05 AM 14.2°F-9.9°C 3.6°F-15.8°C 62% 1.0 mph N1.6 kmh N 4.0 mph6.4 kmh 30.55 in1034.5 mb 0.00 in0.0 mm 0.00 in0.0 mm 0.00 in0.0 mm
01:58 AM 14.4°F-9.8°C 3.6°F-15.8°C 62% 3.0 mph N4.8 kmh N 7.0 mph11.3 kmh 30.55 in1034.5 mb 0.00 in0.0 mm 0.00 in0.0 mm 0.00 in0.0 mm
01:51 AM 14.4°F-9.8°C 3.6°F-15.8°C 62% 3.0 mph N4.8 kmh N 5.0 mph8.0 kmh 30.55 in1034.5 mb 0.00 in0.0 mm 0.00 in0.0 mm 0.00 in0.0 mm
01:44 AM 14.4°F-9.8°C 3.4°F-15.9°C 61% 1.0 mph N1.6 kmh N 5.0 mph8.0 kmh 30.54 in1034.2 mb 0.00 in0.0 mm 0.00 in0.0 mm 0.00 in0.0 mm
01:37 AM 14.5°F-9.7°C 3.6°F-15.8°C 61% 1.0 mph N1.6 kmh N 5.0 mph8.0 kmh 30.54 in1034.2 mb 0.00 in0.0 mm 0.00 in0.0 mm 0.00 in0.0 mm
01:30 AM 14.5°F-9.7°C 3.6°F-15.8°C 61% 3.0 mph N4.8 kmh N 5.0 mph8.0 kmh 30.54 in1034.2 mb 0.00 in0.0 mm 0.00 in0.0 mm 0.00 in0.0 mm
01:23 AM 14.5°F-9.7°C 3.6°F-15.8°C 61% 3.0 mph N4.8 kmh N 7.0 mph11.3 kmh 30.54 in1034.2 mb 0.00 in0.0 mm 0.00 in0.0 mm 0.00 in0.0 mm
01:16 AM 14.7°F-9.6°C 3.7°F-15.7°C 61% 1.0 mph N1.6 kmh N 7.0 mph11.3 kmh 30.54 in1034.2 mb 0.00 in0.0 mm 0.00 in0.0 mm 0.00 in0.0 mm
01:09 AM 14.7°F-9.6°C 3.7°F-15.7°C 61% 1.0 mph N1.6 kmh N 4.0 mph6.4 kmh 30.54 in1034.2 mb 0.00 in0.0 mm 0.00 in0.0 mm 0.00 in0.0 mm
01:02 AM 14.7°F-9.6°C 3.4°F-15.9°C 60% 1.0 mph N1.6 kmh N 5.0 mph8.0 kmh 30.54 in1034.2 mb 0.00 in0.0 mm 0.00 in0.0 mm 0.00 in0.0 mm
12:55 AM 14.9°F-9.5°C 3.6°F-15.8°C 60% 3.0 mph N4.8 kmh N 5.0 mph8.0 kmh 30.54 in1034.2 mb 0.00 in0.0 mm 0.00 in0.0 mm 0.00 in0.0 mm
12:48 AM 15.1°F-9.4°C 3.6°F-15.8°C 60% 3.0 mph N4.8 kmh N 5.0 mph8.0 kmh 30.54 in1034.2 mb 0.00 in0.0 mm 0.00 in0.0 mm 0.00 in0.0 mm
12:41 AM 15.1°F-9.4°C 3.7°F-15.7°C 60% 3.0 mph N4.8 kmh N 5.0 mph8.0 kmh 30.54 in1034.2 mb 0.00 in0.0 mm 0.00 in0.0 mm 0.00 in0.0 mm
12:34 AM 15.1°F-9.4°C 3.7°F-15.7°C 60% 3.0 mph N4.8 kmh N 5.0 mph8.0 kmh 30.53 in1033.9 mb 0.00 in0.0 mm 0.00 in0.0 mm 0.00 in0.0 mm
12:27 AM 15.1°F-9.4°C 3.7°F-15.7°C 60% 3.0 mph N4.8 kmh N 5.0 mph8.0 kmh 30.53 in1033.9 mb 0.00 in0.0 mm 0.00 in0.0 mm 0.00 in0.0 mm
12:20 AM 15.3°F-9.3°C 3.4°F-15.9°C 59% 3.0 mph N4.8 kmh N 7.0 mph11.3 kmh 30.53 in1033.9 mb 0.00 in0.0 mm 0.00 in0.0 mm 0.00 in0.0 mm
12:13 AM 15.3°F-9.3°C 3.4°F-15.9°C 59% 1.0 mph N1.6 kmh N 7.0 mph11.3 kmh 30.53 in1033.9 mb 0.00 in0.0 mm 0.00 in0.0 mm 0.00 in0.0 mm
12:06 AM 15.3°F-9.3°C 3.6°F-15.8°C 59% 1.0 mph N1.6 kmh N 4.0 mph6.4 kmh 30.53 in1033.9 mb 0.00 in0.0 mm 0.00 in0.0 mm 0.00 in0.0 mm